Brandon, SD

3:42 PM CST on February 21, 2017 (GMT -0600)
East Sioux Falls | | Change Station

Elev 1473 ft 43.55 °N, 96.66 °W | Updated 1 second ago

Clear
Clear
68.9 °F
Feels Like 68.9 °F
N
4.0
Wind Variable Wind from South
Gusts 4.9 mph

Today
High -- | Low -- °F
--% Chance of Precip.
Yesterday
High -- | Low -- °F
Precip. -- in
Pressure 29.75 in
Visibility 10.0 miles
Clouds Few 20000 ft
Dew Point 37 °F
Humidity 31%
Rainfall 0.00 in
Snow Depth Not available.
7:15 AM 6:05 PM
Waning Crescent, 22% visible
METAR KFSD 212056Z 25008KT 10SM FEW200 19/04 A2973 RMK AO2 SLP072 T01890039 56019
Pressure 29.75 in
Visibility 10.0 miles
Clouds Few 20000 ft
Dew Point 37 °F
Humidity 31%
Rainfall 0.00 in
Snow Depth Not available.
7:15 AM 6:05 PM
Waning Crescent, 22% visible
METAR KFSD 212056Z 25008KT 10SM FEW200 19/04 A2973 RMK AO2 SLP072 T01890039 56019

Get Your Daily Forecast Email!

Thanks for signing up!

Be on the lookout for a verification email in your inbox.

You'll start receiving the daily forecast at 8 AM.

×

10-Day Weather Forecast

Almanac

Astronomy

Feb. 21, 2017 Rise Set
Actual Time
Civil Twilight
Nautical Twilight
Astronomical Twilight
Moon
Length of Visible Light
Length of Day
Tomorrow will be .
, % of the Moon is Illuminated

Today's Extremes

State Highs State Lows

Community

WunderPhotos

Upload Photos

1,962,540 photos uploaded!

WunderBlog® & News

Nearby

Air Quality

  Air Quality AQ Index Pollutant
Not available.

Snow Depth

Station Depth Elevation

Earthquake Activity

City Distance Mag. Time & Date
Minimum magnitude displayed is 2.5.

Coastal Water Temperatures

Place Temperature

Stations

Nearby Weather Stations

Station Location Temp. Windchill Dew Point Humidity Wind Precip. Elev Updated Type
                   

Watches & Warnings

There are currently no watches in effect.